sensor_id;sensor_type;location;lat;lon;timestamp;P1;durP1;ratioP1;P2;durP2;ratioP2
11245;SDS011;59870;50.106;8.580;2022-12-18T00:01:26;38.73;;;24.60;;
11245;SDS011;59870;50.106;8.580;2022-12-18T00:03:56;39.17;;;24.87;;
11245;SDS011;59870;50.106;8.580;2022-12-18T00:06:25;36.67;;;23.53;;
11245;SDS011;59870;50.106;8.580;2022-12-18T00:08:55;39.63;;;25.77;;
11245;SDS011;59870;50.106;8.580;2022-12-18T00:11:24;37.23;;;24.40;;
11245;SDS011;59870;50.106;8.580;2022-12-18T00:13:55;51.97;;;28.60;;
11245;SDS011;59870;50.106;8.580;2022-12-18T00:16:24;37.47;;;25.17;;
11245;SDS011;59870;50.106;8.580;2022-12-18T00:18:53;43.70;;;27.13;;
11245;SDS011;59870;50.106;8.580;2022-12-18T00:21:24;35.33;;;24.17;;
11245;SDS011;59870;50.106;8.580;2022-12-18T00:23:54;35.23;;;25.00;;
11245;SDS011;59870;50.106;8.580;2022-12-18T00:26:23;36.37;;;24.30;;
11245;SDS011;59870;50.106;8.580;2022-12-18T00:28:59;37.77;;;24.63;;
11245;SDS011;59870;50.106;8.580;2022-12-18T00:31:32;33.70;;;24.63;;
11245;SDS011;59870;50.106;8.580;2022-12-18T00:34:01;39.30;;;23.57;;
11245;SDS011;59870;50.106;8.580;2022-12-18T00:36:30;33.30;;;22.73;;
11245;SDS011;59870;50.106;8.580;2022-12-18T00:39:03;37.77;;;23.40;;
11245;SDS011;59870;50.106;8.580;2022-12-18T00:41:31;32.13;;;21.37;;
11245;SDS011;59870;50.106;8.580;2022-12-18T00:44:18;31.23;;;21.23;;
11245;SDS011;59870;50.106;8.580;2022-12-18T00:46:46;30.17;;;20.47;;
11245;SDS011;59870;50.106;8.580;2022-12-18T00:49:15;30.13;;;21.40;;
11245;SDS011;59870;50.106;8.580;2022-12-18T00:51:45;25.67;;;20.20;;
11245;SDS011;59870;50.106;8.580;2022-12-18T00:54:13;28.33;;;19.53;;
11245;SDS011;59870;50.106;8.580;2022-12-18T00:56:40;26.60;;;19.53;;
11245;SDS011;59870;50.106;8.580;2022-12-18T00:59:16;27.00;;;21.07;;
11245;SDS011;59870;50.106;8.580;2022-12-18T01:01:45;31.77;;;22.80;;
11245;SDS011;59870;50.106;8.580;2022-12-18T01:04:13;28.90;;;20.73;;
11245;SDS011;59870;50.106;8.580;2022-12-18T01:06:44;29.73;;;21.90;;
11245;SDS011;59870;50.106;8.580;2022-12-18T01:09:12;28.40;;;21.30;;
11245;SDS011;59870;50.106;8.580;2022-12-18T01:11:39;35.07;;;21.63;;
11245;SDS011;59870;50.106;8.580;2022-12-18T01:14:07;30.70;;;22.37;;
11245;SDS011;59870;50.106;8.580;2022-12-18T01:16:36;30.30;;;22.00;;
11245;SDS011;59870;50.106;8.580;2022-12-18T01:19:04;30.90;;;22.13;;
11245;SDS011;59870;50.106;8.580;2022-12-18T01:21:32;35.20;;;20.20;;
11245;SDS011;59870;50.106;8.580;2022-12-18T01:24:03;30.67;;;21.20;;
11245;SDS011;59870;50.106;8.580;2022-12-18T01:26:31;31.63;;;20.57;;
11245;SDS011;59870;50.106;8.580;2022-12-18T01:28:58;32.83;;;21.23;;
11245;SDS011;59870;50.106;8.580;2022-12-18T01:31:27;29.30;;;21.10;;
11245;SDS011;59870;50.106;8.580;2022-12-18T01:33:56;33.87;;;22.30;;
11245;SDS011;59870;50.106;8.580;2022-12-18T01:36:25;24.97;;;18.67;;
11245;SDS011;59870;50.106;8.580;2022-12-18T01:39:00;32.93;;;20.20;;
11245;SDS011;59870;50.106;8.580;2022-12-18T01:41:31;24.73;;;20.50;;
11245;SDS011;59870;50.106;8.580;2022-12-18T01:47:18;22.77;;;18.87;;
11245;SDS011;59870;50.106;8.580;2022-12-18T01:49:56;27.87;;;19.80;;
11245;SDS011;59870;50.106;8.580;2022-12-18T01:52:29;25.13;;;19.50;;
11245;SDS011;59870;50.106;8.580;2022-12-18T01:54:59;28.27;;;19.47;;
11245;SDS011;59870;50.106;8.580;2022-12-18T01:57:28;24.60;;;19.57;;
11245;SDS011;59870;50.106;8.580;2022-12-18T01:59:59;26.67;;;19.43;;
11245;SDS011;59870;50.106;8.580;2022-12-18T02:02:39;26.73;;;19.00;;
11245;SDS011;59870;50.106;8.580;2022-12-18T02:05:09;23.13;;;18.13;;
11245;SDS011;59870;50.106;8.580;2022-12-18T02:19:27;21.00;;;18.73;;
11245;SDS011;59870;50.106;8.580;2022-12-18T02:24:41;25.90;;;20.07;;
11245;SDS011;59870;50.106;8.580;2022-12-18T02:27:22;24.83;;;20.03;;
11245;SDS011;59870;50.106;8.580;2022-12-18T02:29:53;27.53;;;19.33;;
11245;SDS011;59870;50.106;8.580;2022-12-18T02:32:28;29.07;;;19.40;;
11245;SDS011;59870;50.106;8.580;2022-12-18T02:35:09;26.50;;;19.83;;
11245;SDS011;59870;50.106;8.580;2022-12-18T02:37:41;29.77;;;20.30;;
11245;SDS011;59870;50.106;8.580;2022-12-18T02:40:11;26.60;;;20.77;;
11245;SDS011;59870;50.106;8.580;2022-12-18T02:42:42;27.97;;;19.80;;
11245;SDS011;59870;50.106;8.580;2022-12-18T02:45:12;30.87;;;20.73;;
11245;SDS011;59870;50.106;8.580;2022-12-18T02:47:40;27.20;;;19.70;;
11245;SDS011;59870;50.106;8.580;2022-12-18T02:58:52;30.33;;;21.07;;
11245;SDS011;59870;50.106;8.580;2022-12-18T03:04:26;27.20;;;20.53;;
11245;SDS011;59870;50.106;8.580;2022-12-18T03:07:07;25.13;;;18.87;;
11245;SDS011;59870;50.106;8.580;2022-12-18T03:09:40;27.57;;;19.43;;
11245;SDS011;59870;50.106;8.580;2022-12-18T03:12:30;26.70;;;19.27;;
11245;SDS011;59870;50.106;8.580;2022-12-18T03:15:08;23.83;;;18.17;;
11245;SDS011;59870;50.106;8.580;2022-12-18T03:17:48;28.17;;;19.47;;
11245;SDS011;59870;50.106;8.580;2022-12-18T03:20:25;25.60;;;19.47;;
11245;SDS011;59870;50.106;8.580;2022-12-18T03:22:57;28.17;;;20.80;;
11245;SDS011;59870;50.106;8.580;2022-12-18T03:25:30;27.77;;;20.20;;
11245;SDS011;59870;50.106;8.580;2022-12-18T03:28:00;29.63;;;20.13;;
11245;SDS011;59870;50.106;8.580;2022-12-18T03:30:31;26.43;;;19.67;;
11245;SDS011;59870;50.106;8.580;2022-12-18T03:33:06;24.83;;;18.10;;
11245;SDS011;59870;50.106;8.580;2022-12-18T03:35:44;26.63;;;20.30;;
11245;SDS011;59870;50.106;8.580;2022-12-18T03:38:12;26.53;;;20.70;;
11245;SDS011;59870;50.106;8.580;2022-12-18T03:46:17;23.43;;;18.43;;
11245;SDS011;59870;50.106;8.580;2022-12-18T03:49:01;27.00;;;19.00;;
11245;SDS011;59870;50.106;8.580;2022-12-18T03:54:07;31.50;;;20.23;;
11245;SDS011;59870;50.106;8.580;2022-12-18T03:56:44;28.73;;;20.50;;
11245;SDS011;59870;50.106;8.580;2022-12-18T03:59:15;27.53;;;19.83;;
11245;SDS011;59870;50.106;8.580;2022-12-18T04:01:46;29.47;;;19.37;;
11245;SDS011;59870;50.106;8.580;2022-12-18T04:04:16;29.30;;;21.43;;
11245;SDS011;59870;50.106;8.580;2022-12-18T04:06:46;29.83;;;20.57;;
11245;SDS011;59870;50.106;8.580;2022-12-18T04:09:18;25.50;;;20.07;;
11245;SDS011;59870;50.106;8.580;2022-12-18T04:11:47;32.23;;;21.27;;
11245;SDS011;59870;50.106;8.580;2022-12-18T04:14:15;28.97;;;20.43;;
11245;SDS011;59870;50.106;8.580;2022-12-18T04:16:45;33.13;;;21.43;;
11245;SDS011;59870;50.106;8.580;2022-12-18T04:19:15;32.93;;;22.83;;
11245;SDS011;59870;50.106;8.580;2022-12-18T04:21:44;28.63;;;20.43;;
11245;SDS011;59870;50.106;8.580;2022-12-18T04:24:13;30.57;;;21.37;;
11245;SDS011;59870;50.106;8.580;2022-12-18T04:26:50;30.23;;;21.00;;
11245;SDS011;59870;50.106;8.580;2022-12-18T04:29:22;30.00;;;22.23;;
11245;SDS011;59870;50.106;8.580;2022-12-18T04:31:50;30.70;;;21.27;;
11245;SDS011;59870;50.106;8.580;2022-12-18T04:34:18;31.53;;;22.23;;
11245;SDS011;59870;50.106;8.580;2022-12-18T04:36:49;30.20;;;21.30;;
11245;SDS011;59870;50.106;8.580;2022-12-18T04:39:17;36.97;;;22.07;;
11245;SDS011;59870;50.106;8.580;2022-12-18T04:41:45;35.70;;;21.07;;
11245;SDS011;59870;50.106;8.580;2022-12-18T04:44:13;31.43;;;22.37;;
11245;SDS011;59870;50.106;8.580;2022-12-18T04:46:40;29.90;;;20.37;;
11245;SDS011;59870;50.106;8.580;2022-12-18T04:49:08;32.40;;;21.03;;
11245;SDS011;59870;50.106;8.580;2022-12-18T04:51:37;31.93;;;19.60;;
11245;SDS011;59870;50.106;8.580;2022-12-18T04:54:04;29.37;;;20.47;;
11245;SDS011;59870;50.106;8.580;2022-12-18T04:56:31;31.63;;;21.67;;
11245;SDS011;59870;50.106;8.580;2022-12-18T04:58:59;35.60;;;21.07;;
11245;SDS011;59870;50.106;8.580;2022-12-18T05:01:27;29.80;;;19.53;;
11245;SDS011;59870;50.106;8.580;2022-12-18T05:04:00;27.67;;;20.43;;
11245;SDS011;59870;50.106;8.580;2022-12-18T05:06:28;30.33;;;20.20;;
11245;SDS011;59870;50.106;8.580;2022-12-18T05:08:56;36.63;;;21.30;;
11245;SDS011;59870;50.106;8.580;2022-12-18T05:11:23;27.77;;;19.63;;
11245;SDS011;59870;50.106;8.580;2022-12-18T05:13:51;30.27;;;20.33;;
11245;SDS011;59870;50.106;8.580;2022-12-18T05:16:18;29.13;;;20.23;;
11245;SDS011;59870;50.106;8.580;2022-12-18T05:18:46;26.10;;;19.20;;
11245;SDS011;59870;50.106;8.580;2022-12-18T05:21:13;28.50;;;20.03;;
11245;SDS011;59870;50.106;8.580;2022-12-18T05:23:41;28.13;;;19.30;;
11245;SDS011;59870;50.106;8.580;2022-12-18T05:26:09;29.67;;;20.83;;
11245;SDS011;59870;50.106;8.580;2022-12-18T05:28:42;29.03;;;20.17;;
11245;SDS011;59870;50.106;8.580;2022-12-18T05:31:11;31.40;;;21.17;;
11245;SDS011;59870;50.106;8.580;2022-12-18T05:33:38;28.60;;;19.20;;
11245;SDS011;59870;50.106;8.580;2022-12-18T05:36:07;28.30;;;19.57;;
11245;SDS011;59870;50.106;8.580;2022-12-18T05:38:36;27.37;;;19.70;;
11245;SDS011;59870;50.106;8.580;2022-12-18T05:41:05;28.93;;;20.87;;
11245;SDS011;59870;50.106;8.580;2022-12-18T05:43:34;28.53;;;19.37;;
11245;SDS011;59870;50.106;8.580;2022-12-18T05:46:04;28.67;;;19.63;;
11245;SDS011;59870;50.106;8.580;2022-12-18T05:48:32;34.77;;;19.53;;
11245;SDS011;59870;50.106;8.580;2022-12-18T05:51:03;29.97;;;19.97;;
11245;SDS011;59870;50.106;8.580;2022-12-18T05:53:33;27.97;;;20.20;;
11245;SDS011;59870;50.106;8.580;2022-12-18T05:56:03;32.53;;;19.90;;
11245;SDS011;59870;50.106;8.580;2022-12-18T05:58:32;31.47;;;20.37;;
11245;SDS011;59870;50.106;8.580;2022-12-18T06:01:13;27.80;;;21.33;;
11245;SDS011;59870;50.106;8.580;2022-12-18T06:03:43;27.77;;;20.73;;
11245;SDS011;59870;50.106;8.580;2022-12-18T06:06:12;28.47;;;20.63;;
11245;SDS011;59870;50.106;8.580;2022-12-18T06:08:46;33.20;;;21.47;;
11245;SDS011;59870;50.106;8.580;2022-12-18T06:11:16;31.00;;;21.50;;
11245;SDS011;59870;50.106;8.580;2022-12-18T06:13:54;27.37;;;19.73;;
11245;SDS011;59870;50.106;8.580;2022-12-18T06:16:25;29.37;;;20.77;;
11245;SDS011;59870;50.106;8.580;2022-12-18T06:18:57;29.10;;;19.83;;
11245;SDS011;59870;50.106;8.580;2022-12-18T06:21:26;29.67;;;21.47;;
11245;SDS011;59870;50.106;8.580;2022-12-18T06:23:55;25.07;;;19.67;;
11245;SDS011;59870;50.106;8.580;2022-12-18T06:26:23;26.03;;;19.10;;
11245;SDS011;59870;50.106;8.580;2022-12-18T06:28:55;28.00;;;19.90;;
11245;SDS011;59870;50.106;8.580;2022-12-18T06:31:23;27.17;;;19.40;;
11245;SDS011;59870;50.106;8.580;2022-12-18T06:33:51;25.10;;;18.30;;
11245;SDS011;59870;50.106;8.580;2022-12-18T06:36:18;29.33;;;20.00;;
11245;SDS011;59870;50.106;8.580;2022-12-18T06:38:47;27.67;;;19.63;;
11245;SDS011;59870;50.106;8.580;2022-12-18T06:41:15;28.10;;;18.17;;
11245;SDS011;59870;50.106;8.580;2022-12-18T06:43:44;27.20;;;19.43;;
11245;SDS011;59870;50.106;8.580;2022-12-18T06:46:12;28.23;;;19.67;;
11245;SDS011;59870;50.106;8.580;2022-12-18T06:48:39;26.10;;;17.83;;
11245;SDS011;59870;50.106;8.580;2022-12-18T06:51:07;27.00;;;19.87;;
11245;SDS011;59870;50.106;8.580;2022-12-18T06:53:34;23.97;;;18.50;;
11245;SDS011;59870;50.106;8.580;2022-12-18T06:56:05;23.60;;;18.10;;
11245;SDS011;59870;50.106;8.580;2022-12-18T06:58:37;27.80;;;19.83;;
11245;SDS011;59870;50.106;8.580;2022-12-18T07:01:06;25.23;;;18.83;;
11245;SDS011;59870;50.106;8.580;2022-12-18T07:03:36;26.03;;;19.17;;
11245;SDS011;59870;50.106;8.580;2022-12-18T07:06:05;26.57;;;19.43;;
11245;SDS011;59870;50.106;8.580;2022-12-18T07:08:33;25.73;;;18.93;;
11245;SDS011;59870;50.106;8.580;2022-12-18T07:11:02;29.33;;;20.13;;
11245;SDS011;59870;50.106;8.580;2022-12-18T07:13:31;24.87;;;18.40;;
11245;SDS011;59870;50.106;8.580;2022-12-18T07:16:06;25.20;;;20.10;;
11245;SDS011;59870;50.106;8.580;2022-12-18T07:18:51;30.03;;;21.97;;
11245;SDS011;59870;50.106;8.580;2022-12-18T07:21:19;29.90;;;21.53;;
11245;SDS011;59870;50.106;8.580;2022-12-18T07:23:47;28.20;;;20.27;;
11245;SDS011;59870;50.106;8.580;2022-12-18T07:26:16;32.03;;;21.47;;
11245;SDS011;59870;50.106;8.580;2022-12-18T07:28:45;29.23;;;21.47;;
11245;SDS011;59870;50.106;8.580;2022-12-18T07:31:14;29.37;;;20.47;;
11245;SDS011;59870;50.106;8.580;2022-12-18T07:33:43;31.17;;;22.70;;
11245;SDS011;59870;50.106;8.580;2022-12-18T07:36:12;34.03;;;21.17;;
11245;SDS011;59870;50.106;8.580;2022-12-18T07:38:40;33.83;;;20.73;;
11245;SDS011;59870;50.106;8.580;2022-12-18T07:41:11;31.03;;;21.47;;
11245;SDS011;59870;50.106;8.580;2022-12-18T07:43:40;28.60;;;20.20;;
11245;SDS011;59870;50.106;8.580;2022-12-18T07:46:09;31.93;;;21.73;;
11245;SDS011;59870;50.106;8.580;2022-12-18T07:48:40;30.47;;;20.47;;
11245;SDS011;59870;50.106;8.580;2022-12-18T07:51:16;28.80;;;20.40;;
11245;SDS011;59870;50.106;8.580;2022-12-18T07:53:45;30.40;;;20.53;;
11245;SDS011;59870;50.106;8.580;2022-12-18T07:56:18;27.23;;;19.60;;
11245;SDS011;59870;50.106;8.580;2022-12-18T07:58:56;26.47;;;20.53;;
11245;SDS011;59870;50.106;8.580;2022-12-18T08:01:25;31.27;;;20.40;;
11245;SDS011;59870;50.106;8.580;2022-12-18T08:03:52;30.63;;;21.07;;
11245;SDS011;59870;50.106;8.580;2022-12-18T08:06:20;32.17;;;21.60;;
11245;SDS011;59870;50.106;8.580;2022-12-18T08:08:53;30.03;;;21.17;;
11245;SDS011;59870;50.106;8.580;2022-12-18T08:11:23;28.73;;;21.93;;
11245;SDS011;59870;50.106;8.580;2022-12-18T08:13:52;31.80;;;22.43;;
11245;SDS011;59870;50.106;8.580;2022-12-18T08:16:22;29.73;;;22.20;;
11245;SDS011;59870;50.106;8.580;2022-12-18T08:18:51;31.40;;;21.87;;
11245;SDS011;59870;50.106;8.580;2022-12-18T08:21:20;32.97;;;22.40;;
11245;SDS011;59870;50.106;8.580;2022-12-18T08:23:50;34.70;;;23.33;;
11245;SDS011;59870;50.106;8.580;2022-12-18T08:26:19;33.87;;;24.20;;
11245;SDS011;59870;50.106;8.580;2022-12-18T08:28:48;30.97;;;22.83;;
11245;SDS011;59870;50.106;8.580;2022-12-18T08:31:17;28.23;;;22.10;;
11245;SDS011;59870;50.106;8.580;2022-12-18T08:33:45;35.80;;;23.77;;
11245;SDS011;59870;50.106;8.580;2022-12-18T08:36:16;29.33;;;21.90;;
11245;SDS011;59870;50.106;8.580;2022-12-18T08:38:44;34.93;;;22.87;;
11245;SDS011;59870;50.106;8.580;2022-12-18T08:41:12;36.00;;;22.80;;
11245;SDS011;59870;50.106;8.580;2022-12-18T08:43:41;33.47;;;24.33;;
11245;SDS011;59870;50.106;8.580;2022-12-18T08:46:31;33.00;;;24.47;;
11245;SDS011;59870;50.106;8.580;2022-12-18T08:49:03;39.50;;;27.93;;
11245;SDS011;59870;50.106;8.580;2022-12-18T08:51:31;37.70;;;25.07;;
11245;SDS011;59870;50.106;8.580;2022-12-18T08:54:00;37.50;;;25.17;;
11245;SDS011;59870;50.106;8.580;2022-12-18T08:56:30;31.13;;;22.33;;
11245;SDS011;59870;50.106;8.580;2022-12-18T08:58:58;29.93;;;22.23;;
11245;SDS011;59870;50.106;8.580;2022-12-18T09:01:26;32.77;;;22.80;;
11245;SDS011;59870;50.106;8.580;2022-12-18T09:03:54;37.90;;;25.10;;
11245;SDS011;59870;50.106;8.580;2022-12-18T09:06:22;38.53;;;27.03;;
11245;SDS011;59870;50.106;8.580;2022-12-18T09:08:49;42.03;;;25.77;;
11245;SDS011;59870;50.106;8.580;2022-12-18T09:11:22;31.53;;;23.63;;
11245;SDS011;59870;50.106;8.580;2022-12-18T09:13:54;34.53;;;24.83;;
11245;SDS011;59870;50.106;8.580;2022-12-18T09:16:24;40.43;;;28.50;;
11245;SDS011;59870;50.106;8.580;2022-12-18T09:18:59;37.23;;;25.20;;
11245;SDS011;59870;50.106;8.580;2022-12-18T09:27:42;33.77;;;23.97;;
11245;SDS011;59870;50.106;8.580;2022-12-18T09:30:27;35.00;;;24.47;;
11245;SDS011;59870;50.106;8.580;2022-12-18T09:33:39;30.13;;;23.43;;
11245;SDS011;59870;50.106;8.580;2022-12-18T09:36:08;35.40;;;24.40;;
11245;SDS011;59870;50.106;8.580;2022-12-18T09:38:39;38.80;;;25.10;;
11245;SDS011;59870;50.106;8.580;2022-12-18T09:41:17;34.83;;;24.10;;
11245;SDS011;59870;50.106;8.580;2022-12-18T09:43:48;32.93;;;24.37;;
11245;SDS011;59870;50.106;8.580;2022-12-18T09:46:24;34.97;;;23.93;;
11245;SDS011;59870;50.106;8.580;2022-12-18T09:55:24;35.23;;;24.83;;
11245;SDS011;59870;50.106;8.580;2022-12-18T10:01:11;38.07;;;26.33;;
11245;SDS011;59870;50.106;8.580;2022-12-18T10:04:04;36.27;;;25.67;;
11245;SDS011;59870;50.106;8.580;2022-12-18T10:06:59;38.67;;;27.33;;
11245;SDS011;59870;50.106;8.580;2022-12-18T10:19:18;46.43;;;29.03;;
11245;SDS011;59870;50.106;8.580;2022-12-18T10:25:18;42.67;;;27.27;;
11245;SDS011;59870;50.106;8.580;2022-12-18T10:28:07;40.97;;;27.73;;
11245;SDS011;59870;50.106;8.580;2022-12-18T10:30:43;39.40;;;28.17;;
11245;SDS011;59870;50.106;8.580;2022-12-18T10:33:17;39.07;;;27.60;;
11245;SDS011;59870;50.106;8.580;2022-12-18T10:35:53;43.03;;;27.63;;
11245;SDS011;59870;50.106;8.580;2022-12-18T10:38:28;44.43;;;28.50;;
11245;SDS011;59870;50.106;8.580;2022-12-18T10:43:28;39.77;;;28.67;;
11245;SDS011;59870;50.106;8.580;2022-12-18T10:46:29;41.43;;;28.90;;
11245;SDS011;59870;50.106;8.580;2022-12-18T10:52:31;44.50;;;28.17;;
11245;SDS011;59870;50.106;8.580;2022-12-18T10:55:18;45.27;;;30.27;;
11245;SDS011;59870;50.106;8.580;2022-12-18T10:58:22;43.23;;;28.47;;
11245;SDS011;59870;50.106;8.580;2022-12-18T11:03:35;45.83;;;30.10;;
11245;SDS011;59870;50.106;8.580;2022-12-18T11:06:14;50.10;;;30.70;;
11245;SDS011;59870;50.106;8.580;2022-12-18T11:09:00;47.43;;;31.43;;
11245;SDS011;59870;50.106;8.580;2022-12-18T11:11:39;47.73;;;29.83;;
11245;SDS011;59870;50.106;8.580;2022-12-18T11:14:16;51.43;;;30.40;;
11245;SDS011;59870;50.106;8.580;2022-12-18T11:16:48;51.57;;;30.63;;
11245;SDS011;59870;50.106;8.580;2022-12-18T11:19:38;49.17;;;29.27;;
11245;SDS011;59870;50.106;8.580;2022-12-18T11:28:56;46.30;;;28.20;;
11245;SDS011;59870;50.106;8.580;2022-12-18T11:31:46;49.83;;;29.47;;
11245;SDS011;59870;50.106;8.580;2022-12-18T11:36:57;48.40;;;29.13;;
11245;SDS011;59870;50.106;8.580;2022-12-18T11:42:09;54.73;;;30.50;;
11245;SDS011;59870;50.106;8.580;2022-12-18T11:44:50;44.80;;;29.30;;
11245;SDS011;59870;50.106;8.580;2022-12-18T11:47:27;53.93;;;31.50;;
11245;SDS011;59870;50.106;8.580;2022-12-18T11:50:14;52.67;;;29.87;;
11245;SDS011;59870;50.106;8.580;2022-12-18T11:52:45;50.50;;;28.20;;
11245;SDS011;59870;50.106;8.580;2022-12-18T11:58:08;44.20;;;29.10;;
11245;SDS011;59870;50.106;8.580;2022-12-18T12:13:45;56.70;;;30.53;;
11245;SDS011;59870;50.106;8.580;2022-12-18T12:16:30;51.50;;;28.00;;
11245;SDS011;59870;50.106;8.580;2022-12-18T12:22:04;48.27;;;29.83;;
11245;SDS011;59870;50.106;8.580;2022-12-18T12:38:08;47.23;;;29.90;;
11245;SDS011;59870;50.106;8.580;2022-12-18T12:40:59;50.70;;;28.53;;
11245;SDS011;59870;50.106;8.580;2022-12-18T12:43:43;56.70;;;30.73;;
11245;SDS011;59870;50.106;8.580;2022-12-18T12:46:17;60.03;;;30.63;;
11245;SDS011;59870;50.106;8.580;2022-12-18T12:48:53;53.63;;;30.03;;
11245;SDS011;59870;50.106;8.580;2022-12-18T12:51:26;49.33;;;29.37;;
11245;SDS011;59870;50.106;8.580;2022-12-18T12:54:01;56.50;;;31.30;;
11245;SDS011;59870;50.106;8.580;2022-12-18T12:59:47;56.93;;;30.40;;
11245;SDS011;59870;50.106;8.580;2022-12-18T13:14:50;47.47;;;29.47;;
11245;SDS011;59870;50.106;8.580;2022-12-18T13:19:51;46.10;;;29.07;;
11245;SDS011;59870;50.106;8.580;2022-12-18T13:22:35;51.57;;;29.27;;
11245;SDS011;59870;50.106;8.580;2022-12-18T13:28:02;50.20;;;29.37;;
11245;SDS011;59870;50.106;8.580;2022-12-18T13:38:21;53.70;;;29.60;;
11245;SDS011;59870;50.106;8.580;2022-12-18T13:40:53;55.93;;;30.20;;
11245;SDS011;59870;50.106;8.580;2022-12-18T13:52:15;54.17;;;30.83;;
11245;SDS011;59870;50.106;8.580;2022-12-18T13:54:57;53.50;;;29.17;;
11245;SDS011;59870;50.106;8.580;2022-12-18T13:57:29;57.10;;;31.33;;
11245;SDS011;59870;50.106;8.580;2022-12-18T14:02:44;52.20;;;30.20;;
11245;SDS011;59870;50.106;8.580;2022-12-18T14:05:26;52.20;;;29.70;;
11245;SDS011;59870;50.106;8.580;2022-12-18T14:07:55;49.37;;;30.90;;
11245;SDS011;59870;50.106;8.580;2022-12-18T14:10:28;50.50;;;28.47;;
11245;SDS011;59870;50.106;8.580;2022-12-18T14:13:18;46.00;;;29.57;;
11245;SDS011;59870;50.106;8.580;2022-12-18T14:15:50;47.30;;;28.67;;
11245;SDS011;59870;50.106;8.580;2022-12-18T14:18:25;51.00;;;29.90;;
11245;SDS011;59870;50.106;8.580;2022-12-18T14:21:30;46.13;;;28.07;;
11245;SDS011;59870;50.106;8.580;2022-12-18T14:24:03;46.47;;;28.63;;
11245;SDS011;59870;50.106;8.580;2022-12-18T14:26:40;54.40;;;30.07;;
11245;SDS011;59870;50.106;8.580;2022-12-18T14:29:21;43.07;;;26.83;;
11245;SDS011;59870;50.106;8.580;2022-12-18T14:34:53;53.20;;;30.13;;
11245;SDS011;59870;50.106;8.580;2022-12-18T14:37:23;48.57;;;29.37;;
11245;SDS011;59870;50.106;8.580;2022-12-18T14:39:59;46.73;;;27.67;;
11245;SDS011;59870;50.106;8.580;2022-12-18T14:42:37;43.97;;;28.93;;
11245;SDS011;59870;50.106;8.580;2022-12-18T14:50:56;47.07;;;27.80;;
11245;SDS011;59870;50.106;8.580;2022-12-18T14:53:53;47.70;;;28.03;;
11245;SDS011;59870;50.106;8.580;2022-12-18T14:56:36;48.57;;;29.50;;
11245;SDS011;59870;50.106;8.580;2022-12-18T14:59:14;38.77;;;25.77;;
11245;SDS011;59870;50.106;8.580;2022-12-18T15:04:32;47.30;;;27.57;;
11245;SDS011;59870;50.106;8.580;2022-12-18T15:07:04;49.50;;;28.10;;
11245;SDS011;59870;50.106;8.580;2022-12-18T15:10:00;44.37;;;27.97;;
11245;SDS011;59870;50.106;8.580;2022-12-18T15:12:38;52.40;;;29.27;;
11245;SDS011;59870;50.106;8.580;2022-12-18T15:18:00;57.43;;;30.43;;
11245;SDS011;59870;50.106;8.580;2022-12-18T15:20:41;48.87;;;28.47;;
11245;SDS011;59870;50.106;8.580;2022-12-18T15:23:14;54.57;;;33.20;;
11245;SDS011;59870;50.106;8.580;2022-12-18T15:25:45;47.53;;;30.53;;
11245;SDS011;59870;50.106;8.580;2022-12-18T15:28:19;43.77;;;28.70;;
11245;SDS011;59870;50.106;8.580;2022-12-18T15:30:58;52.00;;;31.83;;
11245;SDS011;59870;50.106;8.580;2022-12-18T15:33:30;50.47;;;28.40;;
11245;SDS011;59870;50.106;8.580;2022-12-18T15:36:04;49.00;;;29.77;;
11245;SDS011;59870;50.106;8.580;2022-12-18T15:38:36;47.77;;;28.73;;
11245;SDS011;59870;50.106;8.580;2022-12-18T15:41:12;49.60;;;28.50;;
11245;SDS011;59870;50.106;8.580;2022-12-18T15:43:46;46.33;;;29.20;;
11245;SDS011;59870;50.106;8.580;2022-12-18T15:46:17;50.47;;;29.60;;
11245;SDS011;59870;50.106;8.580;2022-12-18T15:48:47;46.47;;;28.83;;
11245;SDS011;59870;50.106;8.580;2022-12-18T15:51:28;50.03;;;27.97;;
11245;SDS011;59870;50.106;8.580;2022-12-18T15:54:02;49.63;;;28.87;;
11245;SDS011;59870;50.106;8.580;2022-12-18T15:56:34;52.00;;;30.17;;
11245;SDS011;59870;50.106;8.580;2022-12-18T15:59:20;44.50;;;29.30;;
11245;SDS011;59870;50.106;8.580;2022-12-18T16:01:48;49.37;;;29.77;;
11245;SDS011;59870;50.106;8.580;2022-12-18T16:04:18;46.73;;;29.13;;
11245;SDS011;59870;50.106;8.580;2022-12-18T16:06:48;45.57;;;30.13;;
11245;SDS011;59870;50.106;8.580;2022-12-18T16:09:36;45.23;;;28.77;;
11245;SDS011;59870;50.106;8.580;2022-12-18T16:12:03;44.70;;;27.90;;
11245;SDS011;59870;50.106;8.580;2022-12-18T16:14:32;48.70;;;29.17;;
11245;SDS011;59870;50.106;8.580;2022-12-18T16:17:00;48.53;;;30.73;;
11245;SDS011;59870;50.106;8.580;2022-12-18T16:19:30;69.03;;;38.30;;
11245;SDS011;59870;50.106;8.580;2022-12-18T16:21:57;49.87;;;30.33;;
11245;SDS011;59870;50.106;8.580;2022-12-18T16:24:27;57.97;;;34.00;;
11245;SDS011;59870;50.106;8.580;2022-12-18T16:26:58;85.27;;;44.37;;
11245;SDS011;59870;50.106;8.580;2022-12-18T16:29:27;58.23;;;32.07;;
11245;SDS011;59870;50.106;8.580;2022-12-18T16:31:56;61.07;;;33.13;;
11245;SDS011;59870;50.106;8.580;2022-12-18T16:34:26;55.17;;;32.13;;
11245;SDS011;59870;50.106;8.580;2022-12-18T16:37:02;58.30;;;33.20;;
11245;SDS011;59870;50.106;8.580;2022-12-18T16:39:35;64.43;;;34.20;;
11245;SDS011;59870;50.106;8.580;2022-12-18T16:42:05;67.50;;;35.00;;
11245;SDS011;59870;50.106;8.580;2022-12-18T16:44:41;53.93;;;32.43;;
11245;SDS011;59870;50.106;8.580;2022-12-18T16:47:09;64.63;;;34.73;;
11245;SDS011;59870;50.106;8.580;2022-12-18T16:49:41;65.53;;;36.53;;
11245;SDS011;59870;50.106;8.580;2022-12-18T16:52:12;59.13;;;33.60;;
11245;SDS011;59870;50.106;8.580;2022-12-18T16:54:40;54.37;;;31.97;;
11245;SDS011;59870;50.106;8.580;2022-12-18T16:57:08;59.63;;;33.23;;
11245;SDS011;59870;50.106;8.580;2022-12-18T16:59:38;58.00;;;33.33;;
11245;SDS011;59870;50.106;8.580;2022-12-18T17:02:10;56.37;;;33.77;;
11245;SDS011;59870;50.106;8.580;2022-12-18T17:04:43;56.27;;;33.33;;
11245;SDS011;59870;50.106;8.580;2022-12-18T17:07:12;51.63;;;31.93;;
11245;SDS011;59870;50.106;8.580;2022-12-18T17:09:40;48.73;;;29.93;;
11245;SDS011;59870;50.106;8.580;2022-12-18T17:12:08;48.33;;;30.90;;
11245;SDS011;59870;50.106;8.580;2022-12-18T17:14:37;51.77;;;30.90;;
11245;SDS011;59870;50.106;8.580;2022-12-18T17:17:04;79.00;;;42.03;;
11245;SDS011;59870;50.106;8.580;2022-12-18T17:19:48;85.37;;;46.63;;
11245;SDS011;59870;50.106;8.580;2022-12-18T17:22:18;77.70;;;45.53;;
11245;SDS011;59870;50.106;8.580;2022-12-18T17:24:50;60.90;;;36.00;;
11245;SDS011;59870;50.106;8.580;2022-12-18T17:27:17;52.30;;;34.30;;
11245;SDS011;59870;50.106;8.580;2022-12-18T17:29:54;56.30;;;35.47;;
11245;SDS011;59870;50.106;8.580;2022-12-18T17:32:21;55.93;;;34.27;;
11245;SDS011;59870;50.106;8.580;2022-12-18T17:34:49;56.00;;;34.70;;
11245;SDS011;59870;50.106;8.580;2022-12-18T17:37:16;57.63;;;33.30;;
11245;SDS011;59870;50.106;8.580;2022-12-18T17:39:44;55.10;;;31.70;;
11245;SDS011;59870;50.106;8.580;2022-12-18T17:42:11;60.77;;;33.87;;
11245;SDS011;59870;50.106;8.580;2022-12-18T17:44:41;60.07;;;34.00;;
11245;SDS011;59870;50.106;8.580;2022-12-18T17:47:09;86.03;;;41.63;;